createdAt,value
2018-12-15T00:00:55.981Z,99.99
2018-12-15T00:01:56.213Z,99.99
2018-12-15T00:03:50.155Z,99.99
2018-12-15T00:04:50.387Z,99.99
2018-12-15T00:06:54.529Z,99.99
2018-12-15T00:07:54.762Z,99.99
2018-12-15T00:09:58.924Z,99.99
2018-12-15T00:10:59.154Z,99.99
2018-12-15T00:13:03.301Z,99.99
2018-12-15T00:14:03.532Z,99.99
2018-12-15T00:16:07.698Z,99.99
2018-12-15T00:17:07.930Z,99.99
2018-12-15T00:19:12.091Z,99.99
2018-12-15T00:20:12.324Z,99.99
2018-12-15T00:22:16.493Z,99.99
2018-12-15T00:23:16.724Z,99.99
2018-12-15T00:25:20.886Z,99.99
2018-12-15T00:26:21.116Z,99.99
2018-12-15T00:28:25.271Z,99.99
2018-12-15T00:29:25.502Z,99.99
2018-12-15T00:31:29.674Z,99.99
2018-12-15T00:32:29.910Z,99.99
2018-12-15T00:34:22.999Z,99.99
2018-12-15T00:35:23.228Z,99.99
2018-12-15T00:37:27.368Z,99.99
2018-12-15T00:38:27.607Z,99.99
2018-12-15T00:40:31.770Z,99.99
2018-12-15T00:41:32.003Z,99.99
2018-12-15T00:43:36.148Z,99.99
2018-12-15T00:44:36.386Z,99.99
2018-12-15T00:46:40.550Z,99.99
2018-12-15T00:47:40.791Z,99.99
2018-12-15T00:49:44.963Z,99.99
2018-12-15T00:50:45.192Z,99.99
2018-12-15T00:52:49.334Z,99.99
2018-12-15T00:53:49.572Z,99.99
2018-12-15T00:55:53.743Z,99.99
2018-12-15T00:56:53.978Z,99.99
2018-12-15T00:58:58.119Z,99.99
2018-12-15T00:59:58.357Z,99.99
2018-12-15T01:02:02.522Z,99.99
2018-12-15T01:03:02.769Z,99.99
2018-12-15T01:05:06.932Z,99.99
2018-12-15T01:06:07.168Z,99.99
2018-12-15T01:08:11.313Z,99.99
2018-12-15T01:09:11.547Z,99.99
2018-12-15T01:11:15.716Z,99.99
2018-12-15T01:12:15.952Z,99.99
2018-12-15T01:14:09.043Z,99.99
2018-12-15T01:15:09.277Z,99.99
2018-12-15T01:17:13.428Z,99.99
2018-12-15T01:18:13.664Z,99.99
2018-12-15T01:20:17.834Z,99.99
2018-12-15T01:21:18.069Z,99.99
2018-12-15T01:23:22.217Z,99.99
2018-12-15T01:24:22.452Z,99.99
2018-12-15T01:26:26.617Z,99.99
2018-12-15T01:27:26.855Z,99.99
2018-12-15T01:29:31.022Z,99.99
2018-12-15T01:30:31.254Z,99.99
2018-12-15T01:32:35.398Z,99.99
2018-12-15T01:33:35.630Z,99.99
2018-12-15T01:35:39.789Z,99.99
2018-12-15T01:36:40.023Z,99.99
2018-12-15T01:38:44.164Z,99.99
2018-12-15T01:39:44.387Z,99.99
2018-12-15T01:41:48.553Z,99.99
2018-12-15T01:42:48.782Z,99.99
2018-12-15T01:44:52.944Z,99.99
2018-12-15T01:45:53.179Z,99.99
2018-12-15T01:47:58.171Z,99.99
2018-12-15T01:48:58.393Z,99.99
2018-12-15T01:51:02.576Z,99.99
2018-12-15T01:52:02.807Z,99.99
2018-12-15T01:53:55.886Z,99.99
2018-12-15T01:54:56.119Z,99.99
2018-12-15T01:57:00.281Z,99.99
2018-12-15T01:58:00.514Z,99.99
2018-12-15T02:00:04.681Z,99.99
2018-12-15T02:01:04.914Z,99.99
2018-12-15T02:03:09.054Z,99.99
2018-12-15T02:04:09.287Z,99.99
2018-12-15T02:06:13.447Z,99.99
2018-12-15T02:07:13.685Z,99.99
2018-12-15T02:09:17.830Z,99.99
2018-12-15T02:10:18.060Z,99.99
2018-12-15T02:12:22.222Z,99.99
2018-12-15T02:13:22.453Z,99.99
2018-12-15T02:15:26.634Z,99.99
2018-12-15T02:16:26.865Z,99.99
2018-12-15T02:18:31.007Z,99.99
2018-12-15T02:19:31.236Z,99.99
2018-12-15T02:21:35.397Z,99.99
2018-12-15T02:22:35.630Z,99.99
2018-12-15T02:24:39.790Z,99.99
2018-12-15T02:25:40.021Z,99.99
2018-12-15T02:27:44.182Z,99.99
2018-12-15T02:28:44.415Z,99.99
2018-12-15T02:30:48.577Z,99.99
2018-12-15T02:31:48.809Z,99.99
2018-12-15T02:33:41.885Z,99.99
2018-12-15T02:34:42.115Z,99.99
2018-12-15T02:36:46.272Z,99.99
2018-12-15T02:37:46.506Z,99.99
2018-12-15T02:39:50.672Z,99.99
2018-12-15T02:40:50.910Z,99.99
2018-12-15T02:42:55.048Z,99.99
2018-12-15T02:43:55.278Z,99.99
2018-12-15T02:45:59.445Z,99.99
2018-12-15T02:46:59.672Z,99.99
2018-12-15T02:49:03.818Z,99.99
2018-12-15T02:50:04.048Z,99.99
2018-12-15T02:52:08.211Z,99.99
2018-12-15T02:53:08.447Z,99.99
2018-12-15T02:55:12.608Z,99.99
2018-12-15T02:56:12.839Z,99.99
2018-12-15T02:58:16.980Z,99.99
2018-12-15T02:59:17.217Z,99.99
2018-12-15T03:01:21.386Z,99.99
2018-12-15T03:02:21.617Z,99.99
2018-12-15T03:04:14.692Z,99.99
2018-12-15T03:05:14.927Z,99.99
2018-12-15T03:07:19.087Z,99.99
2018-12-15T03:08:19.322Z,99.99
2018-12-15T03:10:23.483Z,99.99
2018-12-15T03:11:23.716Z,99.99
2018-12-15T03:13:27.869Z,99.99
2018-12-15T03:14:28.103Z,99.99
2018-12-15T03:16:32.269Z,99.99
2018-12-15T03:17:32.501Z,99.99
2018-12-15T03:19:36.641Z,99.99
2018-12-15T03:20:36.872Z,99.99
2018-12-15T03:22:41.034Z,99.99
2018-12-15T03:23:41.269Z,99.99
2018-12-15T03:25:45.429Z,99.99
2018-12-15T03:26:45.661Z,99.99
2018-12-15T03:28:49.806Z,99.99
2018-12-15T03:29:50.035Z,99.99
2018-12-15T03:31:54.202Z,99.99
2018-12-15T03:32:54.433Z,99.99
2018-12-15T03:34:58.572Z,99.99
2018-12-15T03:35:58.812Z,99.99
2018-12-15T03:38:02.983Z,99.99
2018-12-15T03:39:03.217Z,99.99
2018-12-15T03:41:07.384Z,99.99
2018-12-15T03:42:07.631Z,99.99
2018-12-15T03:44:00.714Z,99.99
2018-12-15T03:45:00.929Z,99.99
2018-12-15T03:47:05.123Z,99.99
2018-12-15T03:48:05.360Z,99.99
2018-12-15T03:50:09.502Z,99.99
2018-12-15T03:51:09.737Z,99.99
2018-12-15T03:53:13.908Z,99.99
2018-12-15T03:54:14.142Z,99.99
2018-12-15T03:56:18.302Z,99.99
2018-12-15T03:57:18.552Z,99.99
2018-12-15T03:59:22.717Z,99.99
2018-12-15T04:00:22.951Z,99.99
2018-12-15T04:02:27.120Z,99.99
2018-12-15T04:03:27.352Z,99.99
2018-12-15T04:05:31.527Z,99.99
2018-12-15T04:06:31.762Z,99.99
2018-12-15T04:08:35.924Z,99.99
2018-12-15T04:09:36.156Z,99.99
2018-12-15T04:11:40.326Z,99.99
2018-12-15T04:12:40.556Z,99.99
2018-12-15T04:14:44.699Z,99.99
2018-12-15T04:15:44.937Z,99.99
2018-12-15T04:17:49.115Z,99.99
2018-12-15T04:18:49.348Z,99.99
2018-12-15T04:20:53.509Z,99.99
2018-12-15T04:21:53.745Z,99.99
2018-12-15T04:23:46.822Z,99.99
2018-12-15T04:24:47.067Z,99.99
2018-12-15T04:26:51.229Z,99.99
2018-12-15T04:27:51.461Z,99.99
2018-12-15T04:29:55.618Z,99.99
2018-12-15T04:30:55.849Z,99.99
2018-12-15T04:33:00.017Z,99.99
2018-12-15T04:34:00.251Z,99.99
2018-12-15T04:36:04.412Z,99.99
2018-12-15T04:37:04.645Z,99.99
2018-12-15T04:39:08.793Z,99.99
2018-12-15T04:40:09.020Z,99.99
2018-12-15T04:42:13.190Z,99.99
2018-12-15T04:43:13.422Z,99.99
2018-12-15T04:45:17.565Z,99.99
2018-12-15T04:46:17.798Z,99.99
2018-12-15T04:48:21.964Z,99.99
2018-12-15T04:49:22.194Z,99.99
2018-12-15T04:51:26.365Z,99.99
2018-12-15T04:52:26.593Z,99.99
2018-12-15T04:54:19.660Z,99.99
2018-12-15T04:55:19.891Z,99.99
2018-12-15T04:57:24.055Z,99.99
2018-12-15T04:58:24.286Z,99.99
2018-12-15T05:00:28.440Z,99.99
2018-12-15T05:01:28.676Z,99.99
2018-12-15T05:03:32.844Z,99.99
2018-12-15T05:04:33.076Z,99.99
2018-12-15T05:06:37.240Z,99.99
2018-12-15T05:07:37.472Z,99.99
2018-12-15T05:09:41.617Z,99.99
2018-12-15T05:10:41.851Z,99.99
2018-12-15T05:12:46.011Z,99.99
2018-12-15T05:13:46.244Z,99.99
2018-12-15T05:15:50.385Z,99.99
2018-12-15T05:16:50.617Z,99.99
2018-12-15T05:18:54.775Z,99.99
2018-12-15T05:19:55.007Z,99.99
2018-12-15T05:21:59.171Z,99.99
2018-12-15T05:22:59.403Z,99.99
2018-12-15T05:25:03.540Z,99.99
2018-12-15T05:26:03.773Z,99.99
2018-12-15T05:28:07.935Z,99.99
2018-12-15T05:29:08.169Z,99.99
2018-12-15T05:31:12.313Z,99.99
2018-12-15T05:32:12.550Z,99.99
2018-12-15T05:34:05.639Z,99.99
2018-12-15T05:35:05.869Z,99.99
2018-12-15T05:37:10.048Z,99.99
2018-12-15T05:38:10.280Z,99.99
2018-12-15T05:40:14.423Z,99.99
2018-12-15T05:41:14.713Z,99.99
2018-12-15T05:43:18.825Z,99.99
2018-12-15T05:44:19.061Z,99.99
2018-12-15T05:46:23.197Z,99.99
2018-12-15T05:47:23.430Z,99.99
2018-12-15T05:49:27.595Z,99.99
2018-12-15T05:50:27.830Z,99.99
2018-12-15T05:52:31.992Z,99.99
2018-12-15T05:53:32.229Z,99.99
2018-12-15T05:55:36.368Z,99.99
2018-12-15T05:56:36.601Z,99.99
2018-12-15T05:58:40.765Z,99.99
2018-12-15T05:59:40.998Z,99.99
2018-12-15T06:01:45.183Z,99.99
2018-12-15T06:02:45.409Z,99.99
2018-12-15T06:04:49.547Z,99.99
2018-12-15T06:05:49.782Z,99.99
2018-12-15T06:07:53.941Z,99.99
2018-12-15T06:08:54.178Z,99.99
2018-12-15T06:10:58.336Z,99.99
2018-12-15T06:11:58.570Z,99.99
2018-12-15T06:13:51.662Z,99.99
2018-12-15T06:14:51.894Z,99.99
2018-12-15T06:16:56.059Z,99.99
2018-12-15T06:17:56.294Z,99.99
2018-12-15T06:20:00.438Z,99.99
2018-12-15T06:21:00.666Z,99.99
2018-12-15T06:23:04.833Z,99.99
2018-12-15T06:24:05.067Z,99.99
2018-12-15T06:26:09.208Z,99.99
2018-12-15T06:27:09.442Z,99.99
2018-12-15T06:29:13.608Z,99.99
2018-12-15T06:30:13.843Z,99.99
2018-12-15T06:32:18.011Z,99.99
2018-12-15T06:33:18.244Z,99.99
2018-12-15T06:35:22.390Z,99.99
2018-12-15T06:36:22.625Z,99.99
2018-12-15T06:38:26.797Z,99.99
2018-12-15T06:39:27.031Z,99.99
2018-12-15T06:41:31.176Z,99.99
2018-12-15T06:42:31.411Z,99.99
2018-12-15T06:44:24.506Z,99.99
2018-12-15T06:45:24.739Z,99.99
2018-12-15T06:47:28.910Z,99.99
2018-12-15T06:48:29.147Z,99.99
2018-12-15T06:50:33.293Z,99.99
2018-12-15T06:51:33.533Z,99.99
2018-12-15T06:53:37.702Z,99.99
2018-12-15T06:54:37.936Z,99.99
2018-12-15T06:56:42.083Z,99.99
2018-12-15T06:57:42.322Z,99.99
2018-12-15T06:59:46.498Z,99.99
2018-12-15T07:00:46.729Z,99.99
2018-12-15T07:02:50.906Z,99.99
2018-12-15T07:03:51.144Z,99.99
2018-12-15T07:05:55.288Z,99.99
2018-12-15T07:06:55.521Z,99.99
2018-12-15T07:08:59.683Z,99.99
2018-12-15T07:09:59.915Z,99.99
2018-12-15T07:12:04.063Z,99.99
2018-12-15T07:13:04.294Z,99.99
2018-12-15T07:15:08.460Z,99.99
2018-12-15T07:16:08.701Z,99.99
2018-12-15T07:18:12.864Z,99.99
2018-12-15T07:19:13.100Z,99.99
2018-12-15T07:21:17.250Z,99.99
2018-12-15T07:22:17.485Z,99.99
2018-12-15T07:24:10.577Z,99.99
2018-12-15T07:25:10.813Z,99.99
2018-12-15T07:27:14.959Z,99.99
2018-12-15T07:28:15.195Z,99.99
2018-12-15T07:30:19.363Z,99.99
2018-12-15T07:31:19.599Z,99.99
2018-12-15T07:33:23.761Z,99.99
2018-12-15T07:34:23.996Z,99.99
2018-12-15T07:36:28.145Z,99.99
2018-12-15T07:37:28.383Z,99.99
2018-12-15T07:39:32.543Z,99.99
2018-12-15T07:40:32.780Z,99.99
2018-12-15T07:42:36.938Z,99.99
2018-12-15T07:43:37.172Z,99.99
2018-12-15T07:45:41.314Z,99.99
2018-12-15T07:46:41.550Z,99.99
2018-12-15T07:48:51.194Z,99.99
2018-12-15T07:49:45.962Z,99.99
2018-12-15T07:51:50.105Z,99.99
2018-12-15T07:52:50.339Z,99.99
2018-12-15T07:54:54.502Z,99.99
2018-12-15T07:55:54.737Z,99.99
2018-12-15T07:57:58.901Z,99.99
2018-12-15T07:58:59.134Z,99.99
2018-12-15T08:01:03.283Z,99.99
2018-12-15T08:02:03.513Z,99.99
2018-12-15T08:03:56.609Z,99.99
2018-12-15T08:04:56.848Z,99.99
2018-12-15T08:07:00.990Z,99.99
2018-12-15T08:08:01.226Z,99.99
2018-12-15T08:10:06.408Z,99.99
2018-12-15T08:11:06.642Z,99.99
2018-12-15T08:13:10.814Z,99.99
2018-12-15T08:14:11.049Z,99.99
2018-12-15T08:16:15.190Z,99.99
2018-12-15T08:17:15.423Z,99.99
2018-12-15T08:19:19.593Z,99.99
2018-12-15T08:20:19.828Z,99.99
2018-12-15T08:22:26.228Z,99.99
2018-12-15T08:23:24.203Z,99.99
2018-12-15T08:25:28.370Z,99.99
2018-12-15T08:26:28.599Z,99.99
2018-12-15T08:28:32.771Z,99.99
2018-12-15T08:29:33.013Z,99.99
2018-12-15T08:31:37.144Z,99.99
2018-12-15T08:32:37.378Z,99.99
2018-12-15T08:34:41.545Z,99.99
2018-12-15T08:35:41.780Z,99.99
2018-12-15T08:37:45.922Z,99.99
2018-12-15T08:38:46.154Z,99.99
2018-12-15T08:40:50.320Z,99.99
2018-12-15T08:41:50.553Z,99.99
2018-12-15T08:43:43.649Z,99.99
2018-12-15T08:44:43.887Z,99.99
2018-12-15T08:46:48.030Z,99.99
2018-12-15T08:47:48.265Z,99.99
2018-12-15T08:49:52.436Z,99.99
2018-12-15T08:50:52.669Z,99.99
2018-12-15T08:52:56.818Z,99.99
2018-12-15T08:53:57.055Z,99.99
2018-12-15T08:56:01.222Z,99.99
2018-12-15T08:57:01.458Z,99.99
2018-12-15T08:59:05.622Z,99.99
2018-12-15T09:00:05.858Z,99.99
2018-12-15T09:02:09.996Z,99.99
2018-12-15T09:03:10.236Z,99.99
2018-12-15T09:05:14.395Z,99.99
2018-12-15T09:06:14.631Z,99.99
2018-12-15T09:08:19.803Z,99.99
2018-12-15T09:09:20.036Z,99.99
2018-12-15T09:11:24.203Z,99.99
2018-12-15T09:12:24.458Z,99.99
2018-12-15T09:14:18.013Z,99.99
2018-12-15T09:15:18.246Z,99.99
2018-12-15T09:17:22.392Z,99.99
2018-12-15T09:18:22.623Z,99.99
2018-12-15T09:20:27.294Z,99.99
2018-12-15T09:21:27.529Z,99.99
2018-12-15T09:23:32.161Z,99.99
2018-12-15T09:24:32.394Z,99.99
2018-12-15T09:26:36.557Z,99.99
2018-12-15T09:27:36.790Z,99.99
2018-12-15T09:29:40.955Z,99.99
2018-12-15T09:30:41.189Z,99.99
2018-12-15T09:32:45.326Z,99.99
2018-12-15T09:33:45.559Z,99.99
2018-12-15T09:35:49.729Z,99.99
2018-12-15T09:36:49.968Z,99.99
2018-12-15T09:38:54.130Z,99.99
2018-12-15T09:39:54.363Z,99.99
2018-12-15T09:41:58.506Z,99.99
2018-12-15T09:42:58.740Z,99.99
2018-12-15T09:45:02.909Z,99.99
2018-12-15T09:46:03.137Z,99.99
2018-12-15T09:48:07.281Z,99.99
2018-12-15T09:49:07.515Z,99.99
2018-12-15T09:51:11.673Z,99.99
2018-12-15T09:52:11.906Z,99.99
2018-12-15T09:54:04.998Z,99.99
2018-12-15T09:55:05.248Z,99.99
2018-12-15T09:57:09.376Z,99.99
2018-12-15T09:58:09.610Z,99.99
2018-12-15T10:00:13.778Z,99.99
2018-12-15T10:01:14.012Z,99.99
2018-12-15T10:03:18.152Z,99.99
2018-12-15T10:04:18.386Z,99.99
2018-12-15T10:06:22.552Z,99.80
2018-12-15T10:07:22.781Z,99.42
2018-12-15T10:09:26.946Z,99.99
2018-12-15T10:10:27.179Z,99.99
2018-12-15T10:12:31.323Z,99.99
2018-12-15T10:13:31.554Z,99.99
2018-12-15T10:15:35.719Z,99.99
2018-12-15T10:16:35.952Z,99.99
2018-12-15T10:18:40.095Z,99.99
2018-12-15T10:19:40.331Z,99.99
2018-12-15T10:21:44.496Z,99.99
2018-12-15T10:22:44.732Z,99.99
2018-12-15T10:24:48.897Z,99.99
2018-12-15T10:25:49.134Z,99.99
2018-12-15T10:27:53.281Z,99.99
2018-12-15T10:28:53.514Z,99.99
2018-12-15T10:30:57.677Z,99.99
2018-12-15T10:31:57.915Z,99.99
2018-12-15T10:33:50.987Z,99.99
2018-12-15T10:34:51.220Z,99.99
2018-12-15T10:36:55.389Z,99.99
2018-12-15T10:37:55.621Z,99.99
2018-12-15T10:39:59.789Z,99.99
2018-12-15T10:41:00.021Z,99.99
2018-12-15T10:43:04.159Z,97.91
2018-12-15T10:44:04.394Z,97.25
2018-12-15T10:46:08.561Z,99.61
2018-12-15T10:47:08.792Z,99.04
2018-12-15T10:49:12.935Z,95.92
2018-12-15T10:50:13.170Z,95.45
2018-12-15T10:52:17.335Z,96.21
2018-12-15T10:53:17.565Z,97.01
2018-12-15T10:55:21.727Z,95.73
2018-12-15T10:56:21.958Z,95.64
2018-12-15T10:58:26.109Z,97.06
2018-12-15T10:59:26.333Z,97.44
2018-12-15T11:01:30.497Z,98.19
2018-12-15T11:02:30.730Z,97.44
2018-12-15T11:04:23.802Z,97.72
2018-12-15T11:05:24.064Z,98.00
2018-12-15T11:07:28.193Z,96.83
2018-12-15T11:08:28.424Z,96.54
2018-12-15T11:10:32.584Z,95.54
2018-12-15T11:11:32.817Z,96.45
2018-12-15T11:13:36.967Z,96.40
2018-12-15T11:14:37.199Z,95.07
2018-12-15T11:16:41.361Z,95.54
2018-12-15T11:17:41.592Z,97.39
2018-12-15T11:19:45.739Z,95.03
2018-12-15T11:20:45.966Z,95.31
2018-12-15T11:22:50.127Z,95.50
2018-12-15T11:23:50.357Z,94.74
2018-12-15T11:25:54.522Z,93.89
2018-12-15T11:26:54.752Z,94.37
2018-12-15T11:28:58.893Z,93.28
2018-12-15T11:29:59.128Z,93.37
2018-12-15T11:32:03.293Z,93.56
2018-12-15T11:33:03.527Z,94.60
2018-12-15T11:35:07.695Z,94.03
2018-12-15T11:36:07.925Z,93.28
2018-12-15T11:38:12.087Z,94.41
2018-12-15T11:39:12.324Z,93.75
2018-12-15T11:41:16.563Z,94.13
2018-12-15T11:42:16.714Z,94.32
2018-12-15T11:44:09.785Z,94.03
2018-12-15T11:45:10.018Z,93.28
2018-12-15T11:47:14.181Z,93.51
2018-12-15T11:48:14.412Z,93.32
2018-12-15T11:50:19.598Z,92.10
2018-12-15T11:51:19.830Z,92.05
2018-12-15T11:53:23.989Z,93.09
2018-12-15T11:54:24.224Z,92.61
2018-12-15T11:56:28.386Z,93.28
2018-12-15T11:57:28.621Z,93.84
2018-12-15T11:59:32.766Z,93.89
2018-12-15T12:00:32.996Z,95.17
2018-12-15T12:02:37.165Z,95.45
2018-12-15T12:03:37.398Z,94.60
2018-12-15T12:05:41.568Z,96.40
2018-12-15T12:06:41.801Z,96.68
2018-12-15T12:08:45.943Z,95.45
2018-12-15T12:09:46.174Z,96.49
2018-12-15T12:11:50.359Z,95.17
2018-12-15T12:12:50.580Z,95.26
2018-12-15T12:14:54.714Z,96.35
2018-12-15T12:15:54.946Z,97.34
2018-12-15T12:17:59.120Z,96.68
2018-12-15T12:18:59.354Z,96.35
2018-12-15T12:21:04.528Z,96.11
2018-12-15T12:22:04.761Z,96.68
2018-12-15T12:23:57.837Z,97.06
2018-12-15T12:24:58.077Z,96.21
2018-12-15T12:27:02.243Z,96.40
2018-12-15T12:28:02.474Z,97.81
2018-12-15T12:30:06.623Z,98.28
2018-12-15T12:31:06.849Z,97.44
2018-12-15T12:33:11.011Z,94.89
2018-12-15T12:34:11.237Z,96.02
2018-12-15T12:36:15.391Z,95.07
2018-12-15T12:37:15.628Z,95.64
2018-12-15T12:39:19.757Z,97.53
2018-12-15T12:40:19.990Z,97.86
2018-12-15T12:42:24.146Z,97.30
2018-12-15T12:43:24.378Z,96.78
2018-12-15T12:45:28.516Z,96.26
2018-12-15T12:46:28.745Z,96.35
2018-12-15T12:48:32.906Z,96.21
2018-12-15T12:49:33.142Z,97.06
2018-12-15T12:51:37.305Z,99.71
2018-12-15T12:52:37.536Z,99.04
2018-12-15T12:54:41.689Z,97.58
2018-12-15T12:55:41.922Z,96.78
2018-12-15T12:57:46.089Z,97.06
2018-12-15T12:58:46.323Z,97.25
2018-12-15T13:00:50.469Z,99.04
2018-12-15T13:01:50.775Z,97.72
2018-12-15T13:03:43.802Z,99.99
2018-12-15T13:04:44.035Z,98.85
2018-12-15T13:06:48.230Z,99.42
2018-12-15T13:07:48.462Z,99.99
2018-12-15T13:09:52.661Z,99.89
2018-12-15T13:10:52.868Z,99.14
2018-12-15T13:12:57.031Z,97.72
2018-12-15T13:13:57.265Z,96.40
2018-12-15T13:16:01.442Z,97.91
2018-12-15T13:17:01.677Z,98.76
2018-12-15T13:19:05.825Z,99.89
2018-12-15T13:20:06.063Z,99.14
2018-12-15T13:22:10.233Z,98.85
2018-12-15T13:23:10.465Z,98.85
2018-12-15T13:25:14.614Z,99.61
2018-12-15T13:26:14.850Z,99.61
2018-12-15T13:28:19.038Z,98.85
2018-12-15T13:29:19.275Z,99.89
2018-12-15T13:31:23.449Z,98.95
2018-12-15T13:32:23.681Z,98.47
2018-12-15T13:34:16.756Z,99.71
2018-12-15T13:35:16.994Z,99.23
2018-12-15T13:37:21.188Z,99.99
2018-12-15T13:38:21.425Z,99.42
2018-12-15T13:40:25.574Z,99.61
2018-12-15T13:41:25.810Z,99.52
2018-12-15T13:43:29.986Z,98.38
2018-12-15T13:44:30.221Z,99.42
2018-12-15T13:46:34.395Z,99.14
2018-12-15T13:47:34.629Z,99.04
2018-12-15T13:49:38.769Z,98.10
2018-12-15T13:50:39.005Z,98.28
2018-12-15T13:52:43.201Z,96.68
2018-12-15T13:53:43.540Z,96.59
2018-12-15T13:55:47.661Z,96.30
2018-12-15T13:56:47.899Z,96.49
2018-12-15T13:58:52.241Z,96.78
2018-12-15T13:59:52.591Z,96.78
2018-12-15T14:01:57.985Z,97.91
2018-12-15T14:02:57.988Z,98.00
2018-12-15T14:05:03.192Z,99.14
2018-12-15T14:06:03.419Z,98.66
2018-12-15T14:08:08.516Z,97.34
2018-12-15T14:09:08.758Z,97.72
2018-12-15T14:11:13.983Z,98.85
2018-12-15T14:12:14.235Z,99.14
2018-12-15T14:14:07.309Z,98.28
2018-12-15T14:15:07.552Z,99.14
2018-12-15T14:17:11.720Z,98.28
2018-12-15T14:18:11.956Z,97.53
2018-12-15T14:20:16.967Z,97.15
2018-12-15T14:21:16.361Z,97.25
2018-12-15T14:23:20.577Z,97.25
2018-12-15T14:24:20.798Z,97.72
2018-12-15T14:26:24.997Z,96.87
2018-12-15T14:27:25.341Z,96.59
2018-12-15T14:29:29.635Z,97.53
2018-12-15T14:30:29.982Z,97.91
2018-12-15T14:32:34.228Z,99.71
2018-12-15T14:33:34.458Z,99.99
2018-12-15T14:35:38.613Z,99.80
2018-12-15T14:36:38.846Z,99.52
2018-12-15T14:38:43.039Z,99.52
2018-12-15T14:39:43.270Z,99.42
2018-12-15T14:41:47.422Z,99.33
2018-12-15T14:42:47.657Z,98.38
2018-12-15T14:44:51.835Z,98.57
2018-12-15T14:45:52.072Z,99.99
2018-12-15T14:47:56.246Z,99.99
2018-12-15T14:48:56.478Z,99.99
2018-12-15T14:51:00.625Z,99.80
2018-12-15T14:52:00.860Z,99.80
2018-12-15T14:53:53.960Z,99.80
2018-12-15T14:54:54.199Z,99.99
2018-12-15T14:56:58.336Z,99.99
2018-12-15T14:57:58.571Z,99.99
2018-12-15T15:00:02.749Z,99.99
2018-12-15T15:01:02.982Z,99.99
2018-12-15T15:03:07.127Z,99.99
2018-12-15T15:04:07.363Z,99.99
2018-12-15T15:06:11.523Z,99.99
2018-12-15T15:07:11.769Z,99.99
2018-12-15T15:09:15.939Z,99.99
2018-12-15T15:10:16.169Z,99.99
2018-12-15T15:12:20.316Z,99.99
2018-12-15T15:13:20.548Z,99.99
2018-12-15T15:15:24.712Z,99.99
2018-12-15T15:16:24.941Z,99.99
2018-12-15T15:18:29.122Z,99.99
2018-12-15T15:19:29.357Z,99.89
2018-12-15T15:21:33.549Z,99.99
2018-12-15T15:22:33.781Z,99.99
2018-12-15T15:24:26.879Z,99.99
2018-12-15T15:25:27.114Z,99.99
2018-12-15T15:27:31.279Z,98.85
2018-12-15T15:28:31.598Z,99.99
2018-12-15T15:30:35.760Z,99.99
2018-12-15T15:31:36.001Z,99.80
2018-12-15T15:33:40.147Z,99.99
2018-12-15T15:34:40.381Z,99.99
2018-12-15T15:36:44.544Z,99.99
2018-12-15T15:37:44.822Z,99.99
2018-12-15T15:39:49.114Z,99.99
2018-12-15T15:40:49.337Z,99.99
2018-12-15T15:42:53.507Z,99.99
2018-12-15T15:43:53.703Z,99.99
2018-12-15T15:45:57.873Z,99.99
2018-12-15T15:46:58.107Z,99.99
2018-12-15T15:49:02.263Z,99.99
2018-12-15T15:50:02.500Z,99.99
2018-12-15T15:52:06.665Z,99.99
2018-12-15T15:53:06.904Z,99.99
2018-12-15T15:55:11.067Z,99.99
2018-12-15T15:56:11.299Z,99.99
2018-12-15T15:58:15.442Z,99.99
2018-12-15T15:59:15.677Z,99.99
2018-12-15T16:01:20.086Z,99.99
2018-12-15T16:02:20.219Z,99.99
2018-12-15T16:04:13.202Z,99.99
2018-12-15T16:05:13.527Z,99.99
2018-12-15T16:07:17.713Z,99.99
2018-12-15T16:08:17.948Z,99.99
2018-12-15T16:10:22.114Z,99.99
2018-12-15T16:11:22.347Z,99.99
2018-12-15T16:13:26.491Z,99.99
2018-12-15T16:14:26.723Z,99.99
2018-12-15T16:16:30.892Z,99.99
2018-12-15T16:17:31.126Z,99.99
2018-12-15T16:19:35.275Z,99.99
2018-12-15T16:20:35.507Z,99.89
2018-12-15T16:22:39.679Z,99.99
2018-12-15T16:23:39.910Z,99.99
2018-12-15T16:25:44.075Z,99.99
2018-12-15T16:26:44.310Z,99.99
2018-12-15T16:28:48.465Z,99.99
2018-12-15T16:29:48.703Z,99.99
2018-12-15T16:31:53.888Z,99.99
2018-12-15T16:32:54.119Z,99.99
2018-12-15T16:34:58.263Z,99.99
2018-12-15T16:35:58.498Z,99.99
2018-12-15T16:38:02.685Z,99.99
2018-12-15T16:39:02.917Z,99.99
2018-12-15T16:41:07.087Z,99.99
2018-12-15T16:42:07.316Z,99.99
2018-12-15T16:44:00.390Z,99.99
2018-12-15T16:45:00.625Z,99.99
2018-12-15T16:47:04.792Z,99.99
2018-12-15T16:48:05.025Z,99.99
2018-12-15T16:50:09.187Z,99.99
2018-12-15T16:51:09.420Z,99.99
2018-12-15T16:53:13.590Z,99.99
2018-12-15T16:54:13.830Z,99.99
2018-12-15T16:56:17.977Z,99.99
2018-12-15T16:57:18.207Z,99.99
2018-12-15T16:59:22.374Z,99.99
2018-12-15T17:00:22.610Z,99.99
2018-12-15T17:02:26.769Z,99.99
2018-12-15T17:03:30.494Z,99.99
2018-12-15T17:05:31.146Z,99.99
2018-12-15T17:06:31.379Z,99.99
2018-12-15T17:08:35.547Z,99.99
2018-12-15T17:09:35.780Z,99.99
2018-12-15T17:11:39.920Z,99.99
2018-12-15T17:12:40.154Z,99.99
2018-12-15T17:14:44.322Z,99.99
2018-12-15T17:15:44.557Z,99.99
2018-12-15T17:17:48.753Z,99.99
2018-12-15T17:18:49.032Z,99.99
2018-12-15T17:20:56.623Z,99.99
2018-12-15T17:21:53.449Z,99.99
2018-12-15T17:23:46.603Z,99.99
2018-12-15T17:24:46.862Z,99.99
2018-12-15T17:26:51.033Z,99.99
2018-12-15T17:27:51.256Z,99.99
2018-12-15T17:29:55.423Z,99.99
2018-12-15T17:30:55.676Z,99.99
2018-12-15T17:32:59.841Z,99.99
2018-12-15T17:34:00.075Z,99.99
2018-12-15T17:36:04.237Z,99.99
2018-12-15T17:37:04.501Z,99.99
2018-12-15T17:39:08.720Z,99.99
2018-12-15T17:40:08.951Z,99.99
2018-12-15T17:42:13.109Z,99.99
2018-12-15T17:43:13.388Z,99.99
2018-12-15T17:45:17.547Z,99.99
2018-12-15T17:46:17.803Z,99.99
2018-12-15T17:48:21.971Z,99.99
2018-12-15T17:49:22.202Z,99.99
2018-12-15T17:51:26.405Z,99.99
2018-12-15T17:52:26.636Z,99.99
2018-12-15T17:54:19.731Z,99.99
2018-12-15T17:55:19.966Z,99.99
2018-12-15T17:57:24.138Z,99.99
2018-12-15T17:58:24.423Z,99.99
2018-12-15T18:00:28.640Z,99.99
2018-12-15T18:01:28.874Z,99.99
2018-12-15T18:03:33.123Z,99.99
2018-12-15T18:04:33.414Z,99.99
2018-12-15T18:06:37.610Z,99.99
2018-12-15T18:07:37.860Z,99.99
2018-12-15T18:09:42.124Z,99.99
2018-12-15T18:10:42.358Z,99.99
2018-12-15T18:12:46.521Z,99.99
2018-12-15T18:13:46.790Z,99.99
2018-12-15T18:15:51.001Z,99.99
2018-12-15T18:16:51.232Z,99.99
2018-12-15T18:18:55.400Z,99.99
2018-12-15T18:19:55.683Z,99.99
2018-12-15T18:21:59.903Z,99.99
2018-12-15T18:23:00.160Z,99.99
2018-12-15T18:25:04.322Z,99.99
2018-12-15T18:26:04.557Z,99.99
2018-12-15T18:28:08.703Z,99.99
2018-12-15T18:29:08.939Z,99.99
2018-12-15T18:31:13.106Z,99.99
2018-12-15T18:32:13.385Z,99.99
2018-12-15T18:34:06.466Z,99.99
2018-12-15T18:35:06.727Z,99.99
2018-12-15T18:37:10.890Z,99.99
2018-12-15T18:38:11.146Z,99.99
2018-12-15T18:40:15.319Z,99.99
2018-12-15T18:41:15.544Z,99.99
2018-12-15T18:43:19.707Z,99.99
2018-12-15T18:44:19.938Z,99.99
2018-12-15T18:46:24.100Z,99.99
2018-12-15T18:47:24.336Z,99.99
2018-12-15T18:49:28.504Z,99.99
2018-12-15T18:50:28.736Z,99.99
2018-12-15T18:52:32.884Z,99.99
2018-12-15T18:53:33.124Z,99.99
2018-12-15T18:55:37.357Z,99.99
2018-12-15T18:56:37.632Z,99.99
2018-12-15T18:58:41.776Z,99.99
2018-12-15T18:59:42.046Z,99.99
2018-12-15T19:01:46.290Z,99.99
2018-12-15T19:02:46.573Z,99.99
2018-12-15T19:04:50.750Z,99.99
2018-12-15T19:05:51.023Z,99.99
2018-12-15T19:07:55.213Z,99.99
2018-12-15T19:08:55.483Z,99.99
2018-12-15T19:10:59.656Z,99.99
2018-12-15T19:11:59.892Z,99.99
2018-12-15T19:13:52.982Z,99.99
2018-12-15T19:14:53.247Z,99.99
2018-12-15T19:16:57.413Z,99.99
2018-12-15T19:17:57.641Z,99.99
2018-12-15T19:20:01.818Z,99.99
2018-12-15T19:21:02.057Z,99.99
2018-12-15T19:23:06.200Z,99.99
2018-12-15T19:24:06.432Z,99.99
2018-12-15T19:26:10.605Z,99.99
2018-12-15T19:27:10.837Z,99.99
2018-12-15T19:29:14.981Z,99.99
2018-12-15T19:30:15.217Z,99.99
2018-12-15T19:32:19.387Z,99.99
2018-12-15T19:33:19.617Z,99.99
2018-12-15T19:35:23.789Z,99.99
2018-12-15T19:36:24.022Z,99.99
2018-12-15T19:38:28.171Z,99.99
2018-12-15T19:39:28.404Z,99.99
2018-12-15T19:41:32.569Z,99.99